Davis Sea — WDC2883 — position and weather

sailwx.info

Track history (hours):
 
Tides and Currents Weather Stations Pressure Air Temp Water Temp Dewpoint Dewpoint Depression Visibility Wind Speed Wind Dir Waves Ship Positions

Davis Sea

Owner: Kirby Offshore Marine, LLC, Staten Island, NY. More information available from US FCC via Universal Licensing System and Coast Guard Vessel Documentation Center.

Last reported at 2014-Oct-23 11:21 UTC. Time now 2014-Oct-24 21:20 UTC.
Position N 25°46' W 080°09'.

; draft 2.6 m.

MMSI: 367129540.

Date/timePositionNaut miles runAvg speedWind from/ knotsBaromVisibWave heightAir tempDewpointWater temp
2014-Oct-23 11:21N 25°46' W 080°09'0 0.0
2014-Oct-23 10:22N 25°46' W 080°09'6 6.9
2014-Oct-23 09:33N 25°50' W 080°05'1010.2
2014-Oct-23 08:33N 26°00' W 080°04'9 9.3
2014-Oct-23 07:33N 26°09' W 080°02'9 8.9
2014-Oct-23 06:33N 26°18' W 080°00'9 9.0
2014-Oct-23 05:33N 26°27' W 080°01'9 9.3
2014-Oct-23 04:33N 26°37' W 080°00'12 9.0
2014-Oct-23 03:11N 26°49' W 080°00'5 7.6
2014-Oct-23 02:34N 26°54' W 080°01'9 8.3
2014-Oct-23 01:32N 27°02' W 080°02'  
2014-Oct-19 17:23N 37°00' W 076°17'10 0.7
2014-Oct-19 04:28N 36°50' W 076°16'0 0.0
2014-Oct-18 23:04N 36°50' W 076°16'0 0.0
2014-Oct-18 08:07N 36°50' W 076°16'0 0.0
2014-Oct-17 13:21N 36°50' W 076°16'0 0.0
2014-Oct-17 06:17N 36°50' W 076°16'0 0.0
2014-Oct-16 16:17N 36°50' W 076°16'0 0.0
2014-Oct-16 15:17N 36°50' W 076°16'0 0.0
2014-Oct-16 14:19N 36°50' W 076°16'0 0.0
2014-Oct-16 13:31N 36°50' W 076°16'0 0.0
2014-Oct-16 12:30N 36°50' W 076°16'0 0.0
2014-Oct-16 11:32N 36°50' W 076°16'0 0.0
2014-Oct-16 10:23N 36°50' W 076°16'0 0.0
2014-Oct-16 07:26N 36°50' W 076°16'0 0.0
2014-Oct-16 04:27N 36°50' W 076°16'0 0.0
2014-Oct-16 00:16N 36°50' W 076°16'0 0.0
2014-Oct-15 23:28N 36°50' W 076°16'0 0.0
2014-Oct-15 22:31N 36°50' W 076°16'0 0.0
2014-Oct-15 20:21N 36°50' W 076°16'0 0.0
2014-Oct-15 19:32N 36°50' W 076°16'0 0.0
2014-Oct-15 18:16N 36°50' W 076°16'0 0.0
2014-Oct-15 17:21N 36°50' W 076°16'0 0.0
2014-Oct-15 16:33N 36°50' W 076°16'0 0.0
2014-Oct-15 15:10N 36°50' W 076°16'0 0.0
2014-Oct-15 14:23N 36°50' W 076°16'0 0.0
2014-Oct-15 12:12N 36°50' W 076°16'0 0.0
2014-Oct-15 09:26N 36°50' W 076°16'0 0.0
2014-Oct-15 08:32N 36°50' W 076°16'0 0.0
2014-Oct-15 07:27N 36°50' W 076°16'0 0.0
2014-Oct-15 06:33N 36°50' W 076°16'0 0.0
2014-Oct-15 05:26N 36°50' W 076°16'0 0.0
2014-Oct-15 04:30N 36°50' W 076°16'0 0.0
2014-Oct-15 03:16N 36°50' W 076°16'0 0.0
2014-Oct-15 02:14N 36°50' W 076°16'0 0.0
2014-Oct-15 01:33N 36°50' W 076°16'0 0.0
2014-Oct-14 23:06N 36°50' W 076°16'0 0.0
2014-Oct-14 22:26N 36°50' W 076°16'0 0.0
2014-Oct-14 21:33N 36°50' W 076°16'0 0.0
2014-Oct-14 20:19N 36°50' W 076°16'0 0.0
2014-Oct-14 19:33N 36°50' W 076°16'0 0.0
2014-Oct-14 06:27N 36°50' W 076°16'0 0.0
2014-Oct-14 05:33N 36°50' W 076°16'0 0.0
2014-Oct-14 04:33N 36°50' W 076°16'0 0.0
2014-Oct-14 03:28N 36°50' W 076°16'0 0.0
2014-Oct-14 01:32N 36°50' W 076°16'0 0.0
2014-Oct-14 00:05N 36°50' W 076°16'0 0.0
2014-Oct-13 23:29N 36°50' W 076°16'0 0.0
2014-Oct-13 22:15N 36°50' W 076°16'0 0.0
2014-Oct-13 21:10N 36°50' W 076°16'0 0.0
2014-Oct-13 20:23N 36°50' W 076°16'0 0.0
2014-Oct-13 18:32N 36°50' W 076°16'0 0.0
2014-Oct-13 16:31N 36°50' W 076°16'0 0.0
2014-Oct-13 15:21N 36°50' W 076°16'0 0.0
2014-Oct-13 14:25N 36°50' W 076°16'0 0.0
2014-Oct-13 13:18N 36°50' W 076°16'0 0.0
2014-Oct-13 12:29N 36°50' W 076°16'  
Track history (hours):
 
Tides and Currents Weather Stations Pressure Air Temp Water Temp Dewpoint Dewpoint Depression Visibility Wind Speed Wind Dir Waves Ship Positions

Davis Sea

Owner: Kirby Offshore Marine, LLC, Staten Island, NY. More information available from US FCC via Universal Licensing System and Coast Guard Vessel Documentation Center.

Last reported at 2014-Oct-23 11:21 UTC. Time now 2014-Oct-24 21:20 UTC.
Position N 25°46' W 080°09'.

; draft 2.6 m.

MMSI: 367129540.

Date/timePositionNaut miles runAvg speedWind from/ knotsBaromVisibWave heightAir tempDewpointWater temp
2014-Oct-23 11:21N 25°46' W 080°09'0 0.0
2014-Oct-23 10:22N 25°46' W 080°09'6 6.9
2014-Oct-23 09:33N 25°50' W 080°05'1010.2
2014-Oct-23 08:33N 26°00' W 080°04'9 9.3
2014-Oct-23 07:33N 26°09' W 080°02'9 8.9
2014-Oct-23 06:33N 26°18' W 080°00'9 9.0
2014-Oct-23 05:33N 26°27' W 080°01'9 9.3
2014-Oct-23 04:33N 26°37' W 080°00'12 9.0
2014-Oct-23 03:11N 26°49' W 080°00'5 7.6
2014-Oct-23 02:34N 26°54' W 080°01'9 8.3
2014-Oct-23 01:32N 27°02' W 080°02'  
2014-Oct-19 17:23N 37°00' W 076°17'10 0.7
2014-Oct-19 04:28N 36°50' W 076°16'0 0.0
2014-Oct-18 23:04N 36°50' W 076°16'0 0.0
2014-Oct-18 08:07N 36°50' W 076°16'0 0.0
2014-Oct-17 13:21N 36°50' W 076°16'0 0.0
2014-Oct-17 06:17N 36°50' W 076°16'0 0.0
2014-Oct-16 16:17N 36°50' W 076°16'0 0.0
2014-Oct-16 15:17N 36°50' W 076°16'0 0.0
2014-Oct-16 14:19N 36°50' W 076°16'0 0.0
2014-Oct-16 13:31N 36°50' W 076°16'0 0.0
2014-Oct-16 12:30N 36°50' W 076°16'0 0.0
2014-Oct-16 11:32N 36°50' W 076°16'0 0.0
2014-Oct-16 10:23N 36°50' W 076°16'0 0.0
2014-Oct-16 07:26N 36°50' W 076°16'0 0.0
2014-Oct-16 04:27N 36°50' W 076°16'0 0.0
2014-Oct-16 00:16N 36°50' W 076°16'0 0.0
2014-Oct-15 23:28N 36°50' W 076°16'0 0.0
2014-Oct-15 22:31N 36°50' W 076°16'0 0.0
2014-Oct-15 20:21N 36°50' W 076°16'0 0.0
2014-Oct-15 19:32N 36°50' W 076°16'0 0.0
2014-Oct-15 18:16N 36°50' W 076°16'0 0.0
2014-Oct-15 17:21N 36°50' W 076°16'0 0.0
2014-Oct-15 16:33N 36°50' W 076°16'0 0.0
2014-Oct-15 15:10N 36°50' W 076°16'0 0.0
2014-Oct-15 14:23N 36°50' W 076°16'0 0.0
2014-Oct-15 12:12N 36°50' W 076°16'0 0.0
2014-Oct-15 09:26N 36°50' W 076°16'0 0.0
2014-Oct-15 08:32N 36°50' W 076°16'0 0.0
2014-Oct-15 07:27N 36°50' W 076°16'0 0.0
2014-Oct-15 06:33N 36°50' W 076°16'0 0.0
2014-Oct-15 05:26N 36°50' W 076°16'0 0.0
2014-Oct-15 04:30N 36°50' W 076°16'0 0.0
2014-Oct-15 03:16N 36°50' W 076°16'0 0.0
2014-Oct-15 02:14N 36°50' W 076°16'0 0.0
2014-Oct-15 01:33N 36°50' W 076°16'0 0.0
2014-Oct-14 23:06N 36°50' W 076°16'0 0.0
2014-Oct-14 22:26N 36°50' W 076°16'0 0.0
2014-Oct-14 21:33N 36°50' W 076°16'0 0.0
2014-Oct-14 20:19N 36°50' W 076°16'0 0.0
2014-Oct-14 19:33N 36°50' W 076°16'0 0.0
2014-Oct-14 06:27N 36°50' W 076°16'0 0.0
2014-Oct-14 05:33N 36°50' W 076°16'0 0.0
2014-Oct-14 04:33N 36°50' W 076°16'0 0.0
2014-Oct-14 03:28N 36°50' W 076°16'0 0.0
2014-Oct-14 01:32N 36°50' W 076°16'0 0.0
2014-Oct-14 00:05N 36°50' W 076°16'0 0.0
2014-Oct-13 23:29N 36°50' W 076°16'0 0.0
2014-Oct-13 22:15N 36°50' W 076°16'0 0.0
2014-Oct-13 21:10N 36°50' W 076°16'0 0.0
2014-Oct-13 20:23N 36°50' W 076°16'0 0.0
2014-Oct-13 18:32N 36°50' W 076°16'0 0.0
2014-Oct-13 16:31N 36°50' W 076°16'0 0.0
2014-Oct-13 15:21N 36°50' W 076°16'0 0.0
2014-Oct-13 14:25N 36°50' W 076°16'0 0.0
2014-Oct-13 13:18N 36°50' W 076°16'0 0.0
2014-Oct-13 12:29N 36°50' W 076°16'  

Dump ship's entire track history